Airfield :
LOGIN :

Register | Disclaimer

   EN    FR    IT 

 










Legend :    VFR   Marginal VFR   IFR   Intensive IFR   Very Intensive IFR
Visi :
Ceiling :
>= 8 km
>= 3000ft
5 to 8 km
1000 to 3000 ft
1500m to 5 km
500 to 1000 ft
800 to 1500m
200 to 500 ft
< 800m
< 200 ft
Symbols :   Thunderstorms  Fog  Heavy snow  Heavy precipitations  Wind > 20 kt
SIGMETs :     Misc.  Thunderstorms  Icing  Turbulence  Mountain Waves  Volcanic Ashes






- Airport Elevation : 670 ft
- IATA code : MSQ


UMMS - Minsk - 2

CURRENT METAR :
  • 021056Z 21002MPS 180V250 3700 BR OVC004 M05/M05 Q1007 NOSIG RMK QBB140

EXPIRED METARs :
  • 021045Z 22002MPS 3600 BR OVC004 M05/M05 Q1007 NOSIG RMK QBB140
  • 021000Z 21002MPS 180V240 3500 BR OVC005 M05/M05 Q1007 NOSIG RMK QBB150
  • 020956Z 21002MPS 3500 BR BKN005 OVC015 M05/M05 Q1007 NOSIG RMK QBB150
  • 020934Z 18002MPS 3600 BR OVC004 M05/M05 Q1007 NOSIG RMK QBB130
  • 020900Z 19002MPS 160V220 3500 BR BKN005 OVC036 M05/M05 Q1007 NOSIG RMK QBB150
  • 020830Z 34001MPS 3600 BR BKN005 OVC036 M05/M05 Q1007 NOSIG RMK QBB150
  • 020827Z VRB01MPS 3600 BR BKN004 OVC037 M05/M05 Q1007 NOSIG RMK QBB130
  • 020800Z 29001MPS 3500 BR BKN003 OVC036 M05/M05 Q1006 NOSIG RMK QBB110
  • 020730Z 26002MPS 3100 BR BKN003 OVC036 M05/M06 Q1006 NOSIG RMK QBB090
  • 020700Z 24002MPS 2900 R31R/2000U BR OVC003 M06/M06 Q1006 NOSIG RMK QBB090
  • 020631Z 24003MPS 2900 BR OVC003 M06/M06 Q1006 NOSIG RMK QBB090
  • 020628Z 24003MPS 2900 BR OVC003 M06/M06 Q1006 NOSIG RMK QBB100
  • 020600Z 24003MPS 3300 BR OVC003 M06/M06 Q1006 NOSIG RMK QBB100

TAF AMD TAF UMMS
Valid from the 02 at 08:00 until the 03 at 06:00 UTC


020813Z 0208/0306 VRB02MPS 3000 BR OVC004
TEMPO 0208/0217 21005MPS 0300 -FZDZ FZFG VV002
BECMG 0217/0218 09005MPS
TEMPO 0218/0223 2100 -SN OVC003
FM022300 12005G10MPS 2100 -SN OVC003
TEMPO 0223/0306 0700 +SHSN BKN015CB



MET'MAP, your aeronautical weather chart ! - Copyright ORBIFLY December 2007 - Disclaimer

ORBIFLY MET'MAP TEAM :

Programming & Development : Alexandra Zaïnal
Original concept : Baudouin d'Aumeries
Technical & hardware support : Manuel Goepfert
Assistance : Marc-Olivier Méhu




SOURCES & CREDITS :

   NOAA